sensor_id;sensor_type;location;lat;lon;timestamp;pressure;altitude;pressure_sealevel;temperature;humidity
58979;BME280;44763;50.464;30.612;2022-10-20T00:04:18;100096.53;;;4.78;84.58
58979;BME280;44763;50.464;30.612;2022-10-20T00:06:45;100092.41;;;4.75;83.46
58979;BME280;44763;50.464;30.612;2022-10-20T00:09:11;100098.33;;;4.73;83.93
58979;BME280;44763;50.464;30.612;2022-10-20T00:11:37;100092.70;;;4.72;84.47
58979;BME280;44763;50.464;30.612;2022-10-20T00:14:04;100100.75;;;4.66;85.55
58979;BME280;44763;50.464;30.612;2022-10-20T00:16:34;100102.89;;;4.67;86.35
58979;BME280;44763;50.464;30.612;2022-10-20T00:19:01;100098.59;;;4.62;86.12
58979;BME280;44763;50.464;30.612;2022-10-20T00:21:28;100097.26;;;4.58;86.23
58979;BME280;44763;50.464;30.612;2022-10-20T00:23:59;100109.13;;;4.58;86.33
58979;BME280;44763;50.464;30.612;2022-10-20T00:26:28;100101.03;;;4.59;86.64
58979;BME280;44763;50.464;30.612;2022-10-20T00:28:56;100107.47;;;4.57;86.98
58979;BME280;44763;50.464;30.612;2022-10-20T00:31:24;100104.16;;;4.55;87.52
58979;BME280;44763;50.464;30.612;2022-10-20T00:33:51;100102.16;;;4.53;87.96
58979;BME280;44763;50.464;30.612;2022-10-20T00:36:19;100107.23;;;4.50;88.41
58979;BME280;44763;50.464;30.612;2022-10-20T00:38:47;100106.75;;;4.46;88.50
58979;BME280;44763;50.464;30.612;2022-10-20T00:41:14;100109.19;;;4.44;88.37
58979;BME280;44763;50.464;30.612;2022-10-20T00:43:54;100114.47;;;4.44;88.31
58979;BME280;44763;50.464;30.612;2022-10-20T00:46:27;100109.66;;;4.39;88.65
58979;BME280;44763;50.464;30.612;2022-10-20T00:51:48;100117.84;;;4.32;87.70
58979;BME280;44763;50.464;30.612;2022-10-20T00:55:35;100119.16;;;4.32;88.01
58979;BME280;44763;50.464;30.612;2022-10-20T00:58:03;100125.73;;;4.28;87.92
58979;BME280;44763;50.464;30.612;2022-10-20T01:00:30;100118.49;;;4.30;87.86
58979;BME280;44763;50.464;30.612;2022-10-20T01:02:58;100117.50;;;4.31;87.75
58979;BME280;44763;50.464;30.612;2022-10-20T01:05:28;100121.80;;;4.32;87.82
58979;BME280;44763;50.464;30.612;2022-10-20T01:07:55;100120.63;;;4.31;88.06
58979;BME280;44763;50.464;30.612;2022-10-20T01:10:23;100122.63;;;4.33;87.89
58979;BME280;44763;50.464;30.612;2022-10-20T01:19:24;100134.85;;;4.34;87.74
58979;BME280;44763;50.464;30.612;2022-10-20T01:30:46;100140.85;;;4.44;87.92
58979;BME280;44763;50.464;30.612;2022-10-20T01:39:22;100146.78;;;4.42;87.06
58979;BME280;44763;50.464;30.612;2022-10-20T01:41:53;100144.64;;;4.41;87.10
58979;BME280;44763;50.464;30.612;2022-10-20T01:44:24;100149.56;;;4.40;87.24
58979;BME280;44763;50.464;30.612;2022-10-20T01:46:52;100148.22;;;4.36;87.07
58979;BME280;44763;50.464;30.612;2022-10-20T01:49:21;100151.86;;;4.35;87.12
58979;BME280;44763;50.464;30.612;2022-10-20T01:51:48;100162.23;;;4.37;86.75
58979;BME280;44763;50.464;30.612;2022-10-20T01:54:31;100164.05;;;4.36;86.63
58979;BME280;44763;50.464;30.612;2022-10-20T02:00:06;100158.77;;;4.36;86.64
58979;BME280;44763;50.464;30.612;2022-10-20T02:02:40;100159.95;;;4.38;86.57
58979;BME280;44763;50.464;30.612;2022-10-20T02:05:36;100162.44;;;4.39;86.32
58979;BME280;44763;50.464;30.612;2022-10-20T02:08:44;100159.48;;;4.42;86.57
58979;BME280;44763;50.464;30.612;2022-10-20T02:11:30;100168.56;;;4.44;86.66
58979;BME280;44763;50.464;30.612;2022-10-20T02:14:01;100168.77;;;4.46;86.59
58979;BME280;44763;50.464;30.612;2022-10-20T02:16:34;100166.45;;;4.47;86.20
58979;BME280;44763;50.464;30.612;2022-10-20T02:19:02;100160.53;;;4.49;85.76
58979;BME280;44763;50.464;30.612;2022-10-20T02:21:30;100170.80;;;4.53;85.52
58979;BME280;44763;50.464;30.612;2022-10-20T02:23:58;100180.88;;;4.57;85.26
58979;BME280;44763;50.464;30.612;2022-10-20T02:26:28;100174.62;;;4.58;85.19
58979;BME280;44763;50.464;30.612;2022-10-20T02:29:04;100167.20;;;4.58;84.48
58979;BME280;44763;50.464;30.612;2022-10-20T02:31:29;100175.95;;;4.58;84.34
58979;BME280;44763;50.464;30.612;2022-10-20T02:33:56;100184.98;;;4.56;84.83
58979;BME280;44763;50.464;30.612;2022-10-20T02:36:27;100175.27;;;4.56;84.58
58979;BME280;44763;50.464;30.612;2022-10-20T02:38:54;100182.84;;;4.55;84.69
58979;BME280;44763;50.464;30.612;2022-10-20T02:41:21;100180.05;;;4.57;84.53
58979;BME280;44763;50.464;30.612;2022-10-20T02:43:47;100174.12;;;4.59;84.83
58979;BME280;44763;50.464;30.612;2022-10-20T02:46:15;100165.39;;;4.58;83.55
58979;BME280;44763;50.464;30.612;2022-10-20T02:48:41;100180.41;;;4.58;83.96
58979;BME280;44763;50.464;30.612;2022-10-20T02:51:09;100184.02;;;4.57;83.71
58979;BME280;44763;50.464;30.612;2022-10-20T02:53:35;100183.52;;;4.57;83.79
58979;BME280;44763;50.464;30.612;2022-10-20T02:56:01;100185.05;;;4.60;84.21
58979;BME280;44763;50.464;30.612;2022-10-20T02:58:28;100189.32;;;4.61;84.46
58979;BME280;44763;50.464;30.612;2022-10-20T03:00:54;100185.86;;;4.60;84.22
58979;BME280;44763;50.464;30.612;2022-10-20T03:03:20;100186.02;;;4.59;83.77
58979;BME280;44763;50.464;30.612;2022-10-20T03:05:46;100182.70;;;4.57;84.06
58979;BME280;44763;50.464;30.612;2022-10-20T03:08:14;100192.75;;;4.57;84.57
58979;BME280;44763;50.464;30.612;2022-10-20T03:10:42;100189.65;;;4.58;84.37
58979;BME280;44763;50.464;30.612;2022-10-20T03:13:08;100193.61;;;4.58;84.43
58979;BME280;44763;50.464;30.612;2022-10-20T03:15:35;100191.96;;;4.61;84.48
58979;BME280;44763;50.464;30.612;2022-10-20T03:18:03;100186.03;;;4.63;84.83
58979;BME280;44763;50.464;30.612;2022-10-20T03:20:29;100186.39;;;4.64;84.10
58979;BME280;44763;50.464;30.612;2022-10-20T03:22:55;100193.95;;;4.63;83.97
58979;BME280;44763;50.464;30.612;2022-10-20T03:25:21;100195.92;;;4.61;84.47
58979;BME280;44763;50.464;30.612;2022-10-20T03:27:50;100184.05;;;4.61;84.32
58979;BME280;44763;50.464;30.612;2022-10-20T03:30:17;100193.78;;;4.60;84.08
58979;BME280;44763;50.464;30.612;2022-10-20T03:32:43;100192.75;;;4.57;84.02
58979;BME280;44763;50.464;30.612;2022-10-20T03:35:10;100180.97;;;4.47;84.34
58979;BME280;44763;50.464;30.612;2022-10-20T03:37:37;100194.05;;;4.53;84.74
58979;BME280;44763;50.464;30.612;2022-10-20T03:40:04;100200.00;;;4.55;84.47
58979;BME280;44763;50.464;30.612;2022-10-20T03:42:30;100188.94;;;4.56;84.26
58979;BME280;44763;50.464;30.612;2022-10-20T03:44:57;100200.83;;;4.56;84.41
58979;BME280;44763;50.464;30.612;2022-10-20T03:47:23;100200.83;;;4.56;84.50
58979;BME280;44763;50.464;30.612;2022-10-20T03:49:50;100204.96;;;4.54;84.82
58979;BME280;44763;50.464;30.612;2022-10-20T03:52:20;100207.75;;;4.53;84.92
58979;BME280;44763;50.464;30.612;2022-10-20T03:54:47;100208.69;;;4.47;84.73
58979;BME280;44763;50.464;30.612;2022-10-20T03:57:13;100212.61;;;4.43;85.00
58979;BME280;44763;50.464;30.612;2022-10-20T03:59:40;100208.83;;;4.46;85.51
58979;BME280;44763;50.464;30.612;2022-10-20T04:02:06;100207.72;;;4.48;85.38
58979;BME280;44763;50.464;30.612;2022-10-20T04:04:32;100215.95;;;4.49;85.38
58979;BME280;44763;50.464;30.612;2022-10-20T04:07:00;100217.48;;;4.52;85.15
58979;BME280;44763;50.464;30.612;2022-10-20T04:09:26;100213.52;;;4.52;85.82
58979;BME280;44763;50.464;30.612;2022-10-20T04:11:54;100206.55;;;4.47;86.00
58979;BME280;44763;50.464;30.612;2022-10-20T04:14:20;100215.22;;;4.39;86.09
58979;BME280;44763;50.464;30.612;2022-10-20T04:16:48;100216.83;;;4.36;86.24
58979;BME280;44763;50.464;30.612;2022-10-20T04:19:15;100213.34;;;4.32;87.16
58979;BME280;44763;50.464;30.612;2022-10-20T04:21:43;100220.41;;;4.31;87.13
58979;BME280;44763;50.464;30.612;2022-10-20T04:24:09;100222.69;;;4.26;87.40
58979;BME280;44763;50.464;30.612;2022-10-20T04:26:36;100219.80;;;4.19;87.64
58979;BME280;44763;50.464;30.612;2022-10-20T04:29:02;100222.41;;;4.15;87.42
58979;BME280;44763;50.464;30.612;2022-10-20T04:31:28;100217.77;;;4.13;87.61
58979;BME280;44763;50.464;30.612;2022-10-20T04:33:54;100226.80;;;4.10;87.68
58979;BME280;44763;50.464;30.612;2022-10-20T04:36:21;100221.48;;;4.06;88.10
58979;BME280;44763;50.464;30.612;2022-10-20T04:38:50;100223.94;;;4.04;87.82
58979;BME280;44763;50.464;30.612;2022-10-20T04:41:16;100226.72;;;4.02;88.46
58979;BME280;44763;50.464;30.612;2022-10-20T04:43:42;100230.39;;;4.05;88.37
58979;BME280;44763;50.464;30.612;2022-10-20T04:46:09;100242.94;;;4.07;87.83
58979;BME280;44763;50.464;30.612;2022-10-20T04:48:40;100240.16;;;4.09;87.64
58979;BME280;44763;50.464;30.612;2022-10-20T04:51:11;100178.23;;;3.67;87.15
58979;BME280;44763;50.464;30.612;2022-10-20T04:53:39;100251.39;;;4.11;87.16
58979;BME280;44763;50.464;30.612;2022-10-20T04:56:09;100248.89;;;4.09;87.03
58979;BME280;44763;50.464;30.612;2022-10-20T04:58:38;100255.13;;;4.08;87.12
58979;BME280;44763;50.464;30.612;2022-10-20T05:01:06;100254.95;;;4.06;87.10
58979;BME280;44763;50.464;30.612;2022-10-20T05:03:35;100259.59;;;4.08;87.38
58979;BME280;44763;50.464;30.612;2022-10-20T05:08:47;100251.81;;;4.06;87.50
58979;BME280;44763;50.464;30.612;2022-10-20T05:11:15;100263.22;;;4.07;88.09
58979;BME280;44763;50.464;30.612;2022-10-20T05:13:43;100260.91;;;4.08;88.24
58979;BME280;44763;50.464;30.612;2022-10-20T05:19:25;100268.72;;;4.14;88.06
58979;BME280;44763;50.464;30.612;2022-10-20T05:21:52;100271.70;;;4.15;88.60
58979;BME280;44763;50.464;30.612;2022-10-20T05:24:19;100268.47;;;4.21;88.51
58979;BME280;44763;50.464;30.612;2022-10-20T05:26:45;100267.79;;;4.19;88.14
58979;BME280;44763;50.464;30.612;2022-10-20T05:32:45;100269.18;;;4.27;87.40
58979;BME280;44763;50.464;30.612;2022-10-20T05:35:12;100275.64;;;4.28;87.49
58979;BME280;44763;50.464;30.612;2022-10-20T05:37:38;100283.27;;;4.32;87.01
58979;BME280;44763;50.464;30.612;2022-10-20T05:40:05;100284.41;;;4.33;87.10
58979;BME280;44763;50.464;30.612;2022-10-20T05:42:32;100282.95;;;4.35;86.65
58979;BME280;44763;50.464;30.612;2022-10-20T05:44:59;100289.55;;;4.35;86.80
58979;BME280;44763;50.464;30.612;2022-10-20T05:47:26;100293.72;;;4.37;86.75
58979;BME280;44763;50.464;30.612;2022-10-20T05:49:52;100302.78;;;4.39;86.61
58979;BME280;44763;50.464;30.612;2022-10-20T05:52:18;100302.98;;;4.41;87.42
58979;BME280;44763;50.464;30.612;2022-10-20T05:54:45;100300.34;;;4.41;86.74
58979;BME280;44763;50.464;30.612;2022-10-20T05:57:11;100306.59;;;4.40;87.04
58979;BME280;44763;50.464;30.612;2022-10-20T05:59:37;100307.34;;;4.33;87.31
58979;BME280;44763;50.464;30.612;2022-10-20T06:02:03;100301.27;;;4.18;87.59
58979;BME280;44763;50.464;30.612;2022-10-20T06:04:29;100306.33;;;4.16;87.99
58979;BME280;44763;50.464;30.612;2022-10-20T06:06:57;100317.56;;;4.18;88.84
58979;BME280;44763;50.464;30.612;2022-10-20T06:09:24;100323.69;;;4.18;88.83
58979;BME280;44763;50.464;30.612;2022-10-20T06:11:51;100314.97;;;4.22;89.16
58979;BME280;44763;50.464;30.612;2022-10-20T06:14:18;100312.68;;;4.23;89.02
58979;BME280;44763;50.464;30.612;2022-10-20T06:16:50;100261.66;;;3.86;89.44
58979;BME280;44763;50.464;30.612;2022-10-20T06:19:18;100322.09;;;4.25;89.36
58979;BME280;44763;50.464;30.612;2022-10-20T06:21:46;100327.55;;;4.24;89.50
58979;BME280;44763;50.464;30.612;2022-10-20T06:24:12;100324.05;;;4.23;89.15
58979;BME280;44763;50.464;30.612;2022-10-20T06:26:39;100325.37;;;4.23;89.57
58979;BME280;44763;50.464;30.612;2022-10-20T06:29:11;100319.63;;;4.24;89.92
58979;BME280;44763;50.464;30.612;2022-10-20T06:31:45;100325.47;;;4.18;89.89
58979;BME280;44763;50.464;30.612;2022-10-20T06:34:13;100321.87;;;4.19;90.17
58979;BME280;44763;50.464;30.612;2022-10-20T06:36:48;100328.47;;;4.19;89.95
58979;BME280;44763;50.464;30.612;2022-10-20T06:39:17;100329.01;;;4.22;90.14
58979;BME280;44763;50.464;30.612;2022-10-20T06:41:50;100320.31;;;4.26;89.86
58979;BME280;44763;50.464;30.612;2022-10-20T06:44:19;100335.64;;;4.26;89.94
58979;BME280;44763;50.464;30.612;2022-10-20T06:46:49;100329.91;;;4.31;90.43
58979;BME280;44763;50.464;30.612;2022-10-20T06:49:19;100334.08;;;4.34;90.58
58979;BME280;44763;50.464;30.612;2022-10-20T06:51:46;100329.48;;;4.36;90.79
58979;BME280;44763;50.464;30.612;2022-10-20T06:54:12;100323.42;;;4.39;90.32
58979;BME280;44763;50.464;30.612;2022-10-20T06:56:40;100335.48;;;4.42;90.21
58979;BME280;44763;50.464;30.612;2022-10-20T06:59:06;100331.52;;;4.42;90.21
58979;BME280;44763;50.464;30.612;2022-10-20T07:01:35;100350.35;;;4.43;90.17
58979;BME280;44763;50.464;30.612;2022-10-20T07:04:05;100348.86;;;4.44;90.06
58979;BME280;44763;50.464;30.612;2022-10-20T07:06:37;100347.54;;;4.44;89.75
58979;BME280;44763;50.464;30.612;2022-10-20T07:09:06;100356.95;;;4.43;89.75
58979;BME280;44763;50.464;30.612;2022-10-20T07:11:34;100355.27;;;4.42;90.40
58979;BME280;44763;50.464;30.612;2022-10-20T07:14:01;100360.05;;;4.42;90.43
58979;BME280;44763;50.464;30.612;2022-10-20T07:16:32;100353.13;;;4.41;90.22
58979;BME280;44763;50.464;30.612;2022-10-20T07:19:02;100359.52;;;4.39;90.43
58979;BME280;44763;50.464;30.612;2022-10-20T07:21:31;100361.84;;;4.38;90.72
58979;BME280;44763;50.464;30.612;2022-10-20T07:24:00;100360.94;;;4.33;90.83
58979;BME280;44763;50.464;30.612;2022-10-20T07:26:32;100367.35;;;4.31;91.53
58979;BME280;44763;50.464;30.612;2022-10-20T07:29:01;100365.35;;;4.28;92.00
58979;BME280;44763;50.464;30.612;2022-10-20T07:31:31;100363.67;;;4.27;92.61
58979;BME280;44763;50.464;30.612;2022-10-20T07:34:07;100369.17;;;4.30;92.64
58979;BME280;44763;50.464;30.612;2022-10-20T07:36:35;100372.30;;;4.29;92.74
58979;BME280;44763;50.464;30.612;2022-10-20T07:39:03;100371.12;;;4.28;93.09
58979;BME280;44763;50.464;30.612;2022-10-20T07:41:30;100376.05;;;4.27;93.41
58979;BME280;44763;50.464;30.612;2022-10-20T07:43:58;100372.48;;;4.32;93.83
58979;BME280;44763;50.464;30.612;2022-10-20T07:46:25;100379.63;;;4.36;94.14
58979;BME280;44763;50.464;30.612;2022-10-20T07:48:52;100379.63;;;4.36;95.03
58979;BME280;44763;50.464;30.612;2022-10-20T07:51:27;100384.77;;;4.37;94.69
58979;BME280;44763;50.464;30.612;2022-10-20T07:54:05;100389.19;;;4.37;94.91
58979;BME280;44763;50.464;30.612;2022-10-20T07:56:36;100389.64;;;4.32;95.35
58979;BME280;44763;50.464;30.612;2022-10-20T07:59:05;100395.42;;;4.32;95.87
58979;BME280;44763;50.464;30.612;2022-10-20T08:01:32;100392.96;;;4.34;96.16
58979;BME280;44763;50.464;30.612;2022-10-20T08:03:58;100393.01;;;4.38;96.26
58979;BME280;44763;50.464;30.612;2022-10-20T08:06:26;100396.05;;;4.43;96.45
58979;BME280;44763;50.464;30.612;2022-10-20T08:08:52;100387.94;;;4.41;97.14
58979;BME280;44763;50.464;30.612;2022-10-20T08:11:19;100391.55;;;4.40;96.88
58979;BME280;44763;50.464;30.612;2022-10-20T08:13:45;100400.92;;;4.38;97.41
58979;BME280;44763;50.464;30.612;2022-10-20T08:16:14;100393.92;;;4.33;97.42
58979;BME280;44763;50.464;30.612;2022-10-20T08:18:40;100397.70;;;4.31;97.42
58979;BME280;44763;50.464;30.612;2022-10-20T08:21:15;100400.52;;;4.33;97.61
58979;BME280;44763;50.464;30.612;2022-10-20T08:23:44;100400.42;;;4.39;98.09
58979;BME280;44763;50.464;30.612;2022-10-20T08:26:15;100403.28;;;4.41;98.23
58979;BME280;44763;50.464;30.612;2022-10-20T08:28:45;100407.56;;;4.42;98.06
58979;BME280;44763;50.464;30.612;2022-10-20T08:31:14;100408.56;;;4.41;98.21
58979;BME280;44763;50.464;30.612;2022-10-20T08:33:41;100406.92;;;4.44;98.04
58979;BME280;44763;50.464;30.612;2022-10-20T08:36:10;100409.92;;;4.45;97.49
58979;BME280;44763;50.464;30.612;2022-10-20T08:38:38;100410.61;;;4.47;97.77
58979;BME280;44763;50.464;30.612;2022-10-20T08:41:12;100407.19;;;4.51;97.30
58979;BME280;44763;50.464;30.612;2022-10-20T08:43:52;100409.54;;;4.54;96.94
58979;BME280;44763;50.464;30.612;2022-10-20T08:46:23;100421.79;;;4.59;96.95
58979;BME280;44763;50.464;30.612;2022-10-20T08:49:02;100419.55;;;4.64;96.87
58979;BME280;44763;50.464;30.612;2022-10-20T08:51:33;100423.41;;;4.70;96.91
58979;BME280;44763;50.464;30.612;2022-10-20T08:54:10;100417.80;;;4.69;97.24
58979;BME280;44763;50.464;30.612;2022-10-20T08:56:38;100424.72;;;4.70;97.37
58979;BME280;44763;50.464;30.612;2022-10-20T09:01:56;100436.01;;;4.76;97.88
58979;BME280;44763;50.464;30.612;2022-10-20T09:04:34;100440.65;;;4.78;97.89
58979;BME280;44763;50.464;30.612;2022-10-20T09:07:22;100437.72;;;4.81;97.74
58979;BME280;44763;50.464;30.612;2022-10-20T09:09:50;100445.61;;;4.77;96.62
58979;BME280;44763;50.464;30.612;2022-10-20T09:12:19;100456.80;;;4.75;96.78
58979;BME280;44763;50.464;30.612;2022-10-20T09:14:46;100440.47;;;4.76;96.93
58979;BME280;44763;50.464;30.612;2022-10-20T09:17:15;100449.21;;;4.76;96.97
58979;BME280;44763;50.464;30.612;2022-10-20T09:19:45;100384.16;;;4.43;96.53
58979;BME280;44763;50.464;30.612;2022-10-20T09:22:15;100449.32;;;4.84;96.50
58979;BME280;44763;50.464;30.612;2022-10-20T09:24:43;100453.97;;;4.86;96.51
58979;BME280;44763;50.464;30.612;2022-10-20T09:27:23;100457.96;;;4.91;96.66
58979;BME280;44763;50.464;30.612;2022-10-20T09:30:19;100463.28;;;4.95;96.66
58979;BME280;44763;50.464;30.612;2022-10-20T09:32:43;100462.50;;;4.98;96.06
58979;BME280;44763;50.464;30.612;2022-10-20T09:40:45;100468.36;;;5.06;95.14
58979;BME280;44763;50.464;30.612;2022-10-20T09:43:20;100473.50;;;5.07;94.70
58979;BME280;44763;50.464;30.612;2022-10-20T09:45:52;100473.03;;;5.12;94.71
58979;BME280;44763;50.464;30.612;2022-10-20T09:48:29;100462.86;;;5.17;94.45
58979;BME280;44763;50.464;30.612;2022-10-20T09:50:57;100476.46;;;5.22;94.49
58979;BME280;44763;50.464;30.612;2022-10-20T09:53:38;100477.67;;;5.28;94.56
58979;BME280;44763;50.464;30.612;2022-10-20T09:56:02;100479.81;;;5.29;94.08
58979;BME280;44763;50.464;30.612;2022-10-20T09:58:33;100485.25;;;5.27;94.43
58979;BME280;44763;50.464;30.612;2022-10-20T10:03:45;100487.06;;;5.26;94.43
58979;BME280;44763;50.464;30.612;2022-10-20T10:08:54;100489.89;;;5.29;94.42
58979;BME280;44763;50.464;30.612;2022-10-20T10:11:33;100493.42;;;5.34;94.54
58979;BME280;44763;50.464;30.612;2022-10-20T10:14:01;100503.20;;;5.37;94.08
58979;BME280;44763;50.464;30.612;2022-10-20T10:16:39;100496.45;;;5.39;93.72
58979;BME280;44763;50.464;30.612;2022-10-20T10:19:06;100495.98;;;5.43;93.65
58979;BME280;44763;50.464;30.612;2022-10-20T10:21:47;100499.66;;;5.46;93.47
58979;BME280;44763;50.464;30.612;2022-10-20T10:24:35;100503.02;;;5.53;93.69
58979;BME280;44763;50.464;30.612;2022-10-20T10:27:02;100497.05;;;5.51;93.29
58979;BME280;44763;50.464;30.612;2022-10-20T10:29:31;100506.58;;;5.61;93.27
58979;BME280;44763;50.464;30.612;2022-10-20T10:35:21;100507.25;;;5.63;92.05
58979;BME280;44763;50.464;30.612;2022-10-20T10:37:46;100489.09;;;5.69;91.96
58979;BME280;44763;50.464;30.612;2022-10-20T10:40:16;100502.02;;;5.72;90.16
58979;BME280;44763;50.464;30.612;2022-10-20T10:55:00;100505.66;;;5.93;90.26
58979;BME280;44763;50.464;30.612;2022-10-20T11:00:50;100517.77;;;5.77;91.86
58979;BME280;44763;50.464;30.612;2022-10-20T11:03:36;100508.60;;;5.68;92.98
58979;BME280;44763;50.464;30.612;2022-10-20T11:06:26;100503.93;;;5.61;93.18
58979;BME280;44763;50.464;30.612;2022-10-20T11:09:04;100499.90;;;5.57;94.27
58979;BME280;44763;50.464;30.612;2022-10-20T11:14:58;100525.92;;;5.48;95.55
58979;BME280;44763;50.464;30.612;2022-10-20T11:29:07;100534.61;;;5.40;98.12
58979;BME280;44763;50.464;30.612;2022-10-20T11:31:47;100543.75;;;5.46;98.42
58979;BME280;44763;50.464;30.612;2022-10-20T11:34:26;100542.64;;;5.49;98.48
58979;BME280;44763;50.464;30.612;2022-10-20T11:39:47;100542.25;;;5.43;98.75
58979;BME280;44763;50.464;30.612;2022-10-20T11:45:29;100538.53;;;5.36;99.45
58979;BME280;44763;50.464;30.612;2022-10-20T11:48:05;100542.47;;;5.32;99.71
58979;BME280;44763;50.464;30.612;2022-10-20T11:50:33;100548.43;;;5.34;99.79
58979;BME280;44763;50.464;30.612;2022-10-20T11:53:14;100557.58;;;5.40;100.00
58979;BME280;44763;50.464;30.612;2022-10-20T11:56:14;100556.44;;;5.42;100.00
58979;BME280;44763;50.464;30.612;2022-10-20T12:01:24;100565.11;;;5.49;100.00
58979;BME280;44763;50.464;30.612;2022-10-20T12:09:38;100578.98;;;5.64;100.00
58979;BME280;44763;50.464;30.612;2022-10-20T12:12:12;100578.01;;;5.65;100.00
58979;BME280;44763;50.464;30.612;2022-10-20T12:14:43;100582.69;;;5.72;100.00
58979;BME280;44763;50.464;30.612;2022-10-20T12:17:19;100578.22;;;5.72;99.83
58979;BME280;44763;50.464;30.612;2022-10-20T12:19:50;100584.51;;;5.71;99.79
58979;BME280;44763;50.464;30.612;2022-10-20T12:27:27;100604.02;;;5.74;99.64
58979;BME280;44763;50.464;30.612;2022-10-20T12:29:57;100605.56;;;5.77;99.42
58979;BME280;44763;50.464;30.612;2022-10-20T12:37:56;100618.78;;;5.77;99.06
58979;BME280;44763;50.464;30.612;2022-10-20T12:40:42;100624.72;;;5.75;99.36
58979;BME280;44763;50.464;30.612;2022-10-20T12:46:25;100629.16;;;5.74;98.97
58979;BME280;44763;50.464;30.612;2022-10-20T12:48:58;100637.55;;;5.70;99.09
58979;BME280;44763;50.464;30.612;2022-10-20T12:57:02;100647.23;;;5.79;99.04
58979;BME280;44763;50.464;30.612;2022-10-20T12:59:36;100653.21;;;5.81;98.98
58979;BME280;44763;50.464;30.612;2022-10-20T13:19:35;100685.24;;;5.92;97.77
58979;BME280;44763;50.464;30.612;2022-10-20T13:22:31;100687.03;;;5.91;97.60
58979;BME280;44763;50.464;30.612;2022-10-20T13:25:01;100691.69;;;5.93;97.81
58979;BME280;44763;50.464;30.612;2022-10-20T13:27:29;100697.40;;;5.98;97.83
58979;BME280;44763;50.464;30.612;2022-10-20T13:29:55;100702.19;;;5.99;97.32
58979;BME280;44763;50.464;30.612;2022-10-20T13:35:20;100706.73;;;5.93;97.43
58979;BME280;44763;50.464;30.612;2022-10-20T13:38:11;100707.38;;;5.91;98.15
58979;BME280;44763;50.464;30.612;2022-10-20T13:40:57;100719.42;;;5.89;98.02
58979;BME280;44763;50.464;30.612;2022-10-20T13:43:33;100710.16;;;5.89;97.70
58979;BME280;44763;50.464;30.612;2022-10-20T13:46:15;100725.40;;;5.91;97.02
58979;BME280;44763;50.464;30.612;2022-10-20T13:51:46;100739.31;;;5.93;96.80
58979;BME280;44763;50.464;30.612;2022-10-20T13:54:21;100745.17;;;5.97;96.69
58979;BME280;44763;50.464;30.612;2022-10-20T13:56:51;100744.39;;;6.00;96.10
58979;BME280;44763;50.464;30.612;2022-10-20T13:59:21;100751.40;;;6.06;95.68
58979;BME280;44763;50.464;30.612;2022-10-20T14:02:00;100757.09;;;6.11;95.43
58979;BME280;44763;50.464;30.612;2022-10-20T14:04:31;100754.30;;;6.12;94.80
58979;BME280;44763;50.464;30.612;2022-10-20T14:07:08;100765.85;;;6.11;94.31
58979;BME280;44763;50.464;30.612;2022-10-20T14:09:40;100762.02;;;6.10;94.35
58979;BME280;44763;50.464;30.612;2022-10-20T14:12:19;100764.81;;;6.08;94.31
58979;BME280;44763;50.464;30.612;2022-10-20T14:14:50;100756.45;;;6.13;93.79
58979;BME280;44763;50.464;30.612;2022-10-20T14:17:21;100771.19;;;6.15;93.19
58979;BME280;44763;50.464;30.612;2022-10-20T14:19:50;100765.25;;;6.17;92.26
58979;BME280;44763;50.464;30.612;2022-10-20T14:22:21;100770.40;;;6.19;91.98
58979;BME280;44763;50.464;30.612;2022-10-20T14:24:53;100788.92;;;6.19;92.11
58979;BME280;44763;50.464;30.612;2022-10-20T14:27:31;100789.56;;;6.17;91.84
58979;BME280;44763;50.464;30.612;2022-10-20T14:29:58;100798.97;;;6.15;91.93
58979;BME280;44763;50.464;30.612;2022-10-20T14:32:34;100801.12;;;6.16;91.75
58979;BME280;44763;50.464;30.612;2022-10-20T14:38:04;100810.39;;;6.16;91.76
58979;BME280;44763;50.464;30.612;2022-10-20T14:40:35;100809.02;;;6.12;91.66
58979;BME280;44763;50.464;30.612;2022-10-20T14:43:12;100809.34;;;6.09;91.46
58979;BME280;44763;50.464;30.612;2022-10-20T14:45:53;100820.25;;;6.10;90.97
58979;BME280;44763;50.464;30.612;2022-10-20T14:48:22;100820.56;;;6.07;90.29
58979;BME280;44763;50.464;30.612;2022-10-20T14:50:51;100820.48;;;6.02;90.81
58979;BME280;44763;50.464;30.612;2022-10-20T14:53:28;100827.46;;;6.03;90.58
58979;BME280;44763;50.464;30.612;2022-10-20T14:55:56;100828.43;;;6.02;91.20
58979;BME280;44763;50.464;30.612;2022-10-20T14:58:33;100830.11;;;6.03;91.42
58979;BME280;44763;50.464;30.612;2022-10-20T15:01:23;100836.37;;;6.02;91.89
58979;BME280;44763;50.464;30.612;2022-10-20T15:04:14;100842.52;;;6.03;91.12
58979;BME280;44763;50.464;30.612;2022-10-20T15:06:44;100837.36;;;6.01;91.04
58979;BME280;44763;50.464;30.612;2022-10-20T15:09:29;100837.64;;;5.98;90.57
58979;BME280;44763;50.464;30.612;2022-10-20T15:11:50;100840.15;;;6.00;91.02
58979;BME280;44763;50.464;30.612;2022-10-20T15:14:19;100852.41;;;6.01;90.99
58979;BME280;44763;50.464;30.612;2022-10-20T15:16:48;100848.45;;;6.01;91.25
58979;BME280;44763;50.464;30.612;2022-10-20T15:21:58;100855.30;;;6.08;91.06
58979;BME280;44763;50.464;30.612;2022-10-20T15:24:35;100843.24;;;6.09;90.64
58979;BME280;44763;50.464;30.612;2022-10-20T15:27:03;100857.52;;;6.12;90.40
58979;BME280;44763;50.464;30.612;2022-10-20T15:29:31;100859.67;;;6.13;89.63
58979;BME280;44763;50.464;30.612;2022-10-20T15:31:58;100862.50;;;6.15;89.36
58979;BME280;44763;50.464;30.612;2022-10-20T15:34:24;100865.97;;;6.16;88.40
58979;BME280;44763;50.464;30.612;2022-10-20T15:36:51;100858.75;;;6.18;88.05
58979;BME280;44763;50.464;30.612;2022-10-20T15:39:17;100867.30;;;6.16;88.31